Time;durP1;ratioP1;P1;durP2;ratioP2;P2;SDS_P1;SDS_P2;PMS_P1;PMS_P2;Temp;Humidity;BMP_temperature;BMP_pressure;BME280_temperature;BME280_humidity;BME280_pressure;Samples;Min_cycle;Max_cycle;Signal;HPM_P1;HPM_P2
2022/03/14 17:51:30;;;;;;;12.00;3.85;;;27.70;83.70;;;;;;5566353;23;19966;-49
2022/03/14 17:53:57;;;;;;;14.52;3.95;;;27.70;83.30;;;;;;4957877;29;20043;-56
2022/03/14 17:56:24;;;;;;;15.25;4.07;;;27.80;83.40;;;;;;4949439;29;20292;-49
2022/03/14 17:58:51;;;;;;;14.27;3.78;;;27.80;83.60;;;;;;4948894;29;20338;-46
2022/03/14 18:01:18;;;;;;;14.57;4.03;;;27.80;83.40;;;;;;4949084;29;20032;-56
2022/03/14 18:03:44;;;;;;;14.93;4.00;;;27.80;83.50;;;;;;4948907;29;20330;-45
2022/03/14 18:06:11;;;;;;;16.65;3.58;;;27.80;83.80;;;;;;4949403;29;20099;-46
2022/03/14 18:08:39;;;;;;;11.25;3.38;;;27.80;83.90;;;;;;4948653;29;20319;-52
2022/03/14 18:11:05;;;;;;;10.30;2.95;;;27.80;83.40;;;;;;4948894;29;20059;-47
2022/03/14 18:13:32;;;;;;;12.63;3.97;;;27.80;83.90;;;;;;4948527;29;20016;-54
2022/03/14 18:15:59;;;;;;;13.07;3.50;;;27.80;84.00;;;;;;4948754;29;20030;-51
2022/03/14 18:18:26;;;;;;;13.25;3.60;;;27.80;83.70;;;;;;4947803;29;20055;-56
2022/03/14 18:20:58;;;;;;;13.48;3.60;;;27.90;83.90;;;;;;4948039;29;20058;-48
2022/03/14 18:23:25;;;;;;;15.38;4.28;;;27.80;84.00;;;;;;4948851;29;20050;-48
2022/03/14 18:25:52;;;;;;;23.70;4.60;;;27.80;84.20;;;;;;4948824;29;20030;-47
2022/03/14 18:28:19;;;;;;;14.40;4.35;;;27.80;84.10;;;;;;4950925;29;20047;-47
2022/03/14 18:30:45;;;;;;;14.82;4.40;;;27.80;84.40;;;;;;4954321;29;20414;-49
2022/03/14 18:33:18;;;;;;;19.50;4.50;;;27.90;84.60;;;;;;4967131;29;20023;-53
2022/03/14 18:35:48;;;;;;;14.77;3.92;;;27.90;84.40;;;;;;4950563;29;20055;-54
2022/03/14 18:38:14;;;;;;;12.55;3.97;;;27.90;84.40;;;;;;4967751;29;20022;-57
2022/03/14 18:40:41;;;;;;;13.27;3.83;;;27.80;84.30;;;;;;4967810;29;20322;-58
2022/03/14 18:43:08;;;;;;;11.52;3.72;;;27.90;84.50;;;;;;4972701;29;20023;-52
2022/03/14 18:45:35;;;;;;;14.63;4.15;;;27.90;84.50;;;;;;4966680;29;20043;-49
2022/03/14 18:48:13;;;;;;;12.20;4.45;;;27.90;84.60;;;;;;4965746;29;20102;-49
2022/03/14 18:51:12;;;;;;;11.45;4.05;;;27.90;84.60;;;;;;4966403;29;20023;-49
2022/03/14 18:53:47;;;;;;;12.45;4.53;;;27.90;84.50;;;;;;4967092;29;20043;-50
2022/03/14 18:56:23;;;;;;;11.70;4.18;;;27.90;84.30;;;;;;4967367;29;20143;-48
2022/03/14 18:58:52;;;;;;;14.18;4.28;;;27.90;84.30;;;;;;4967419;29;20071;-51
2022/03/14 19:01:19;;;;;;;9.48;3.72;;;27.90;84.50;;;;;;4967280;29;20031;-50
2022/03/14 19:03:46;;;;;;;8.20;3.90;;;28.00;84.50;;;;;;4966994;29;20042;-52
2022/03/14 19:06:16;;;;;;;11.27;3.83;;;27.90;84.20;;;;;;4966880;29;20030;-45
2022/03/14 19:08:44;;;;;;;9.75;3.88;;;27.90;84.40;;;;;;4967075;29;20039;-56
2022/03/14 19:11:12;;;;;;;10.88;4.10;;;28.00;84.50;;;;;;4950070;29;20038;-48
2022/03/14 19:13:39;;;;;;;9.07;4.05;;;28.00;84.20;;;;;;4966956;29;20019;-49
2022/03/14 19:16:07;;;;;;;13.55;4.18;;;28.00;84.30;;;;;;4966875;29;20102;-46
2022/03/14 19:18:37;;;;;;;11.48;4.00;;;28.00;83.80;;;;;;4966947;29;20179;-51
2022/03/14 19:21:06;;;;;;;10.02;4.32;;;28.00;83.70;;;;;;4966658;29;20023;-48
2022/03/14 19:23:34;;;;;;;9.25;4.03;;;28.00;83.70;;;;;;4966638;29;20042;-48
2022/03/14 19:26:02;;;;;;;12.00;4.30;;;28.00;83.70;;;;;;4965568;28;20051;-47
2022/03/14 19:28:28;;;;;;;12.05;4.32;;;28.00;83.50;;;;;;4966032;29;20043;-49
2022/03/14 19:30:55;;;;;;;11.02;4.05;;;28.00;83.70;;;;;;4966447;29;20087;-52
2022/03/14 19:33:23;;;;;;;10.90;4.00;;;28.00;83.80;;;;;;4966418;29;20055;-50
2022/03/14 19:35:50;;;;;;;15.25;4.22;;;28.00;83.60;;;;;;4966312;29;20106;-47
2022/03/14 19:38:18;;;;;;;11.15;4.35;;;28.00;83.60;;;;;;4966460;29;20023;-49
2022/03/14 19:40:46;;;;;;;10.93;4.22;;;28.00;83.70;;;;;;4966296;29;20031;-49
2022/03/14 19:43:18;;;;;;;9.77;4.28;;;28.00;83.90;;;;;;4966198;29;20019;-46
2022/03/14 19:45:48;;;;;;;12.20;4.45;;;28.10;83.60;;;;;;4966508;29;20034;-48
2022/03/14 19:48:17;;;;;;;11.05;4.10;;;28.00;83.60;;;;;;4966213;29;20208;-44
2022/03/14 19:50:46;;;;;;;11.13;3.83;;;28.10;83.40;;;;;;4965784;29;20027;-49
2022/03/14 19:53:13;;;;;;;11.07;4.65;;;28.10;83.70;;;;;;4966062;29;20235;-45
2022/03/14 19:55:40;;;;;;;9.55;4.28;;;28.10;82.90;;;;;;4966120;29;20027;-47
2022/03/14 19:58:07;;;;;;;10.95;3.78;;;28.10;83.30;;;;;;4966307;29;20098;-50
2022/03/14 20:00:34;;;;;;;11.32;4.07;;;28.10;83.50;;;;;;4966159;29;20051;-47
2022/03/14 20:03:02;;;;;;;9.63;4.22;;;28.10;83.10;;;;;;4965865;29;20034;-49
2022/03/14 20:05:29;;;;;;;9.63;4.40;;;28.10;83.00;;;;;;4965957;29;20082;-49
2022/03/14 20:07:56;;;;;;;7.15;3.95;;;28.10;83.20;;;;;;4965741;29;20090;-54
2022/03/14 20:10:23;;;;;;;8.38;4.18;;;28.00;82.90;;;;;;4965778;29;20023;-48
2022/03/14 20:12:50;;;;;;;12.23;4.72;;;28.10;83.10;;;;;;4965985;29;20337;-53
2022/03/14 20:15:18;;;;;;;7.97;4.38;;;28.10;83.40;;;;;;4966192;29;20057;-52
2022/03/14 20:17:48;;;;;;;13.73;4.80;;;28.10;82.50;;;;;;4965535;29;20027;-48
2022/03/14 20:20:16;;;;;;;7.15;4.22;;;28.10;82.60;;;;;;4966060;29;20039;-46
2022/03/14 20:22:43;;;;;;;9.52;4.88;;;28.10;82.20;;;;;;4966006;29;20027;-47
2022/03/14 20:25:10;;;;;;;10.93;4.85;;;28.10;81.80;;;;;;4966120;29;20035;-53
2022/03/14 20:27:36;;;;;;;10.57;4.88;;;28.10;82.10;;;;;;4965638;29;20053;-50
2022/03/14 20:30:04;;;;;;;6.75;4.10;;;28.10;82.10;;;;;;4965996;29;20282;-47
2022/03/14 20:32:31;;;;;;;12.35;5.40;;;28.10;81.40;;;;;;4965705;29;20023;-50
2022/03/14 20:34:59;;;;;;;8.88;4.28;;;28.10;81.90;;;;;;4966027;29;20088;-46
2022/03/14 20:37:25;;;;;;;11.18;5.07;;;28.10;81.70;;;;;;4967965;28;20054;-47
2022/03/14 20:39:53;;;;;;;8.45;4.80;;;28.10;82.20;;;;;;4969930;29;20027;-47
2022/03/14 20:42:19;;;;;;;10.23;5.40;;;28.10;82.20;;;;;;4969493;29;20074;-52
2022/03/14 20:44:46;;;;;;;8.75;4.72;;;28.10;81.80;;;;;;4969805;29;20299;-45
2022/03/14 20:47:16;;;;;;;13.60;5.28;;;28.10;81.70;;;;;;4969539;29;20050;-48
2022/03/14 20:49:44;;;;;;;9.60;5.25;;;28.10;81.90;;;;;;4969524;29;20058;-49
2022/03/14 20:52:11;;;;;;;9.88;4.82;;;28.10;81.90;;;;;;4969126;29;20051;-52
2022/03/14 20:54:38;;;;;;;10.05;5.55;;;28.10;82.10;;;;;;4969726;29;20350;-46
2022/03/14 20:57:04;;;;;;;9.32;5.13;;;28.10;82.10;;;;;;4969177;29;20095;-48
2022/03/14 20:59:31;;;;;;;10.68;5.70;;;28.10;81.90;;;;;;4969570;29;20023;-49
2022/03/14 21:04:42;;;;;;;10.80;5.60;;;28.10;82.20;;;;;;4969512;29;20029;-49
2022/03/14 21:07:09;;;;;;;10.90;5.35;;;28.10;82.00;;;;;;4968972;29;20389;-44
2022/03/14 21:09:39;;;;;;;12.95;5.43;;;28.00;81.70;;;;;;4968687;29;20215;-47
2022/03/14 21:12:06;;;;;;;11.55;5.63;;;28.10;82.30;;;;;;4968846;29;20027;-47
2022/03/14 21:14:32;;;;;;;11.10;5.70;;;28.00;82.30;;;;;;4969443;29;20019;-47
2022/03/14 21:16:59;;;;;;;10.38;6.07;;;28.10;82.20;;;;;;4969039;29;20058;-50
2022/03/14 21:19:26;;;;;;;13.02;5.57;;;28.00;82.10;;;;;;4969124;29;20038;-45
2022/03/14 21:21:52;;;;;;;9.85;6.10;;;28.00;82.30;;;;;;4969062;29;20023;-50
2022/03/14 21:24:25;;;;;;;12.77;6.15;;;28.10;82.10;;;;;;4968861;29;20200;-49
2022/03/14 21:26:52;;;;;;;;;;;28.00;82.30;;;;;;4969144;29;20069;-50
2022/03/14 21:29:22;;;;;;;11.98;6.72;;;28.00;82.10;;;;;;4968776;29;19915;-49
2022/03/14 21:31:49;;;;;;;13.60;7.30;;;28.00;82.60;;;;;;4968564;29;20350;-52
2022/03/14 21:34:19;;;;;;;12.40;8.13;;;28.00;82.70;;;;;;4968875;29;20235;-56
2022/03/14 21:36:52;;;;;;;14.68;8.48;;;28.00;82.60;;;;;;4968706;29;20336;-50
2022/03/14 21:39:25;;;;;;;16.00;8.40;;;28.00;82.70;;;;;;4968844;29;20100;-47
2022/03/14 21:41:53;;;;;;;14.32;8.43;;;28.00;82.80;;;;;;4968585;29;20039;-46
2022/03/14 21:44:22;;;;;;;13.15;8.02;;;28.00;82.80;;;;;;4967230;29;20031;-53
2022/03/14 21:46:51;;;;;;;15.35;7.70;;;28.00;82.40;;;;;;4968532;29;20023;-52
2022/03/14 21:49:18;;;;;;;12.00;6.68;;;28.00;82.20;;;;;;4967525;28;20027;-51
2022/03/14 21:51:46;;;;;;;10.45;7.07;;;28.00;82.70;;;;;;4967898;29;20043;-51
2022/03/14 21:54:16;;;;;;;12.88;7.18;;;28.00;82.80;;;;;;4968449;29;20345;-51
2022/03/14 21:56:43;;;;;;;11.98;7.68;;;28.00;82.50;;;;;;4968354;29;20019;-53
2022/03/14 21:59:12;;;;;;;13.35;7.38;;;28.00;82.60;;;;;;4968208;29;20366;-56
2022/03/14 22:01:40;;;;;;;15.07;7.07;;;28.00;82.60;;;;;;4968146;29;20019;-53
2022/03/14 22:04:10;;;;;;;14.77;7.22;;;28.00;82.60;;;;;;4968343;29;20032;-48
2022/03/14 22:06:37;;;;;;;9.82;6.65;;;28.00;82.70;;;;;;4950943;29;20060;-50
2022/03/14 22:09:04;;;;;;;14.60;7.10;;;28.00;82.60;;;;;;4968189;29;20098;-54
2022/03/14 22:11:31;;;;;;;9.55;6.22;;;28.00;82.60;;;;;;4967853;29;20065;-50
2022/03/14 22:13:57;;;;;;;10.77;6.85;;;28.00;82.70;;;;;;4968170;28;20039;-50
2022/03/14 22:16:24;;;;;;;15.30;6.65;;;28.00;82.90;;;;;;4967945;29;20082;-50
2022/03/14 22:18:54;;;;;;;14.73;6.53;;;28.00;82.70;;;;;;4967826;29;20065;-52
2022/03/14 22:21:25;;;;;;;15.45;5.93;;;28.00;83.20;;;;;;4968084;29;20046;-50
2022/03/14 22:23:51;;;;;;;17.75;6.22;;;28.00;82.80;;;;;;4950885;29;20047;-49
2022/03/14 22:26:18;;;;;;;25.80;6.30;;;28.00;83.20;;;;;;4967976;29;20019;-52
2022/03/14 22:28:44;;;;;;;21.13;6.30;;;27.90;83.00;;;;;;4968150;28;20034;-50
2022/03/14 22:31:11;;;;;;;20.38;6.35;;;28.00;83.20;;;;;;4967838;29;20346;-49
2022/03/14 22:33:38;;;;;;;20.38;6.47;;;27.90;82.80;;;;;;4967629;29;20030;-46
2022/03/14 22:36:05;;;;;;;15.32;5.90;;;27.90;83.00;;;;;;4967727;29;20342;-50
2022/03/14 22:38:31;;;;;;;18.48;6.30;;;27.90;83.00;;;;;;4967517;29;20035;-46
2022/03/14 22:41:02;;;;;;;18.92;6.53;;;27.90;83.10;;;;;;4967506;29;20030;-50
2022/03/14 22:43:28;;;;;;;16.77;6.93;;;27.90;83.00;;;;;;4967716;29;20039;-49
2022/03/14 22:45:56;;;;;;;19.90;6.70;;;27.90;82.90;;;;;;4967984;29;20169;-54
2022/03/14 22:48:23;;;;;;;15.70;7.10;;;27.90;82.90;;;;;;4950083;29;20264;-52
2022/03/14 22:50:51;;;;;;;17.10;7.13;;;27.90;83.00;;;;;;4966861;29;20070;-47
2022/03/14 22:53:18;;;;;;;17.08;7.15;;;27.90;83.30;;;;;;4967270;29;20315;-51
2022/03/14 22:55:45;;;;;;;14.13;6.80;;;27.90;83.20;;;;;;4967181;29;20107;-50
2022/03/14 22:58:13;;;;;;;15.20;6.45;;;27.90;83.20;;;;;;4967185;29;20090;-46
2022/03/14 23:00:43;;;;;;;11.23;6.60;;;27.90;83.30;;;;;;4966864;28;20039;-50
2022/03/14 23:06:00;;;;;;;11.65;6.40;;;27.90;83.40;;;;;;4967100;29;20066;-49
2022/03/14 23:08:28;;;;;;;11.35;6.43;;;27.90;83.50;;;;;;4966695;29;20039;-50
2022/03/14 23:13:47;;;;;;;13.60;7.75;;;27.90;83.60;;;;;;4966777;29;20033;-57
2022/03/14 23:16:21;;;;;;;14.55;9.23;;;27.90;83.30;;;;;;4967157;29;20310;-51
2022/03/14 23:18:49;;;;;;;15.52;9.10;;;27.90;83.50;;;;;;4966963;29;20055;-53
2022/03/14 23:21:18;;;;;;;19.30;9.70;;;27.90;83.60;;;;;;4967201;29;20137;-53
2022/03/14 23:23:48;;;;;;;18.50;9.95;;;27.90;83.20;;;;;;4966744;29;20035;-56
2022/03/14 23:26:16;;;;;;;16.48;9.82;;;27.90;83.40;;;;;;4966661;29;20027;-53
2022/03/14 23:28:46;;;;;;;14.35;9.18;;;27.90;83.10;;;;;;4966808;29;20068;-56
2022/03/14 23:31:13;;;;;;;14.10;8.98;;;27.80;83.10;;;;;;4966992;29;20058;-47
2022/03/14 23:33:40;;;;;;;15.15;8.20;;;27.80;83.40;;;;;;4966431;29;20019;-45
2022/03/14 23:36:06;;;;;;;14.38;7.70;;;27.80;83.40;;;;;;4966932;29;20035;-50
2022/03/14 23:38:33;;;;;;;17.10;7.72;;;27.80;83.50;;;;;;4966692;29;20303;-52
2022/03/14 23:41:01;;;;;;;14.85;8.05;;;27.80;83.40;;;;;;4966777;29;20031;-53
2022/03/14 23:43:30;;;;;;;20.02;8.73;;;27.80;83.10;;;;;;4966700;29;20333;-47
2022/03/14 23:45:57;;;;;;;14.38;8.90;;;27.80;83.30;;;;;;4966776;29;20042;-49
2022/03/14 23:48:26;;;;;;;15.55;10.23;;;27.80;83.20;;;;;;4966279;29;20034;-51
2022/03/14 23:50:56;;;;;;;17.10;10.25;;;27.80;83.10;;;;;;4966425;29;20115;-52
2022/03/14 23:53:24;;;;;;;24.45;10.05;;;27.80;83.20;;;;;;4962625;29;20307;-49
2022/03/14 23:55:50;;;;;;;17.63;7.88;;;27.80;82.90;;;;;;4966237;29;20023;-49
2022/03/14 23:58:32;;;;;;;16.92;7.28;;;27.80;82.50;;;;;;4932022;29;20215;-51
